Terminal Aerodrome Forecast
Issued by NWS

Home | Current Version | Previous Version | Text Only | Print | Product List | Glossary On
Versions: 1 2 3 4 5 6 7 8 9 10 11 12 13
939
FTUS43 KLSX 192330
TAFSUS
TAF
KSUS 192330Z 2000/2024 VRB03KT P6SM SKC
     FM201400 21007KT P6SM FEW250
     FM201800 21011G18KT P6SM FEW250=

USA.gov is the U.S. government's official web portal to all federal, state and local government web resources and services.